createdAt,value
2019-03-31T00:00:13.616Z,8.40
2019-03-31T00:01:23.648Z,8.40
2019-03-31T00:02:30.531Z,8.20
2019-03-31T00:03:37.474Z,8.20
2019-03-31T00:04:44.341Z,8.20
2019-03-31T00:05:51.314Z,8.20
2019-03-31T00:06:58.101Z,8.30
2019-03-31T00:08:05.156Z,8.30
2019-03-31T00:09:12.352Z,8.30
2019-03-31T00:10:19.381Z,8.20
2019-03-31T00:11:26.270Z,8.30
2019-03-31T00:12:33.240Z,8.30
2019-03-31T00:13:40.062Z,8.30
2019-03-31T00:14:47.075Z,8.30
2019-03-31T00:15:54.004Z,8.20
2019-03-31T00:17:02.045Z,8.30
2019-03-31T00:18:08.951Z,8.30
2019-03-31T00:19:16.824Z,8.30
2019-03-31T00:20:23.851Z,8.20
2019-03-31T00:21:30.692Z,8.20
2019-03-31T00:22:37.809Z,8.20
2019-03-31T00:23:44.780Z,8.20
2019-03-31T00:24:53.431Z,8.10
2019-03-31T00:26:00.442Z,8.10
2019-03-31T00:27:07.290Z,8.10
2019-03-31T00:28:14.305Z,8.20
2019-03-31T00:29:21.301Z,8.20
2019-03-31T00:30:28.739Z,8.20
2019-03-31T00:31:35.699Z,8.20
2019-03-31T00:32:42.651Z,8.20
2019-03-31T00:33:49.675Z,8.20
2019-03-31T00:34:56.677Z,8.20
2019-03-31T00:36:03.660Z,8.10
2019-03-31T00:37:10.498Z,8.10
2019-03-31T00:38:17.556Z,8.10
2019-03-31T00:39:24.709Z,8.10
2019-03-31T00:40:31.661Z,8.10
2019-03-31T00:41:38.534Z,8.10
2019-03-31T00:42:45.645Z,8.10
2019-03-31T00:43:52.674Z,8.10
2019-03-31T00:44:59.580Z,8.10
2019-03-31T00:46:06.701Z,8.00
2019-03-31T00:47:13.537Z,8.00
2019-03-31T00:48:20.678Z,8.00
2019-03-31T00:49:28.740Z,8.00
2019-03-31T00:50:35.782Z,7.80
2019-03-31T00:51:42.692Z,7.90
2019-03-31T00:52:50.808Z,7.90
2019-03-31T00:53:57.633Z,7.90
2019-03-31T00:55:05.069Z,7.90
2019-03-31T00:56:11.929Z,7.90
2019-03-31T00:57:18.892Z,7.90
2019-03-31T00:58:25.757Z,8.00
2019-03-31T00:59:32.619Z,7.90
2019-03-31T01:00:57.200Z,7.80
2019-03-31T01:02:11.291Z,7.90
2019-03-31T01:03:19.837Z,7.80
2019-03-31T01:04:29.704Z,7.80
2019-03-31T01:05:38.771Z,7.80
2019-03-31T01:06:48.827Z,7.80
2019-03-31T01:07:56.183Z,7.80
2019-03-31T01:09:07.271Z,7.80
2019-03-31T01:10:16.218Z,7.90
2019-03-31T01:11:25.314Z,7.90
2019-03-31T01:12:32.343Z,7.90
2019-03-31T01:13:39.644Z,7.90
2019-03-31T01:14:46.528Z,7.80
2019-03-31T01:15:55.850Z,7.80
2019-03-31T01:17:03.355Z,7.80
2019-03-31T01:18:10.720Z,7.70
2019-03-31T01:19:17.699Z,7.70
2019-03-31T01:20:24.758Z,7.70
2019-03-31T01:21:31.736Z,7.80
2019-03-31T01:22:38.801Z,7.80
2019-03-31T01:23:45.732Z,7.80
2019-03-31T01:24:52.842Z,7.80
2019-03-31T01:26:00.608Z,7.80
2019-03-31T01:27:09.793Z,7.70
2019-03-31T01:28:16.937Z,7.50
2019-03-31T01:29:24.073Z,7.50
2019-03-31T01:30:30.893Z,7.40
2019-03-31T01:31:49.731Z,7.50
2019-03-31T01:32:46.471Z,7.50
2019-03-31T01:33:53.360Z,7.60
2019-03-31T01:35:00.477Z,7.60
2019-03-31T01:36:07.781Z,7.60
2019-03-31T01:37:14.801Z,7.60
2019-03-31T01:38:21.900Z,7.70
2019-03-31T01:39:29.930Z,7.60
2019-03-31T01:40:37.066Z,7.60
2019-03-31T01:41:44.090Z,7.50
2019-03-31T01:42:51.157Z,7.70
2019-03-31T01:43:58.191Z,7.70
2019-03-31T01:45:06.281Z,7.70
2019-03-31T01:46:15.432Z,7.60
2019-03-31T01:47:22.464Z,7.60
2019-03-31T01:48:29.581Z,7.60
2019-03-31T01:49:36.391Z,7.60
2019-03-31T01:50:43.167Z,7.60
2019-03-31T01:51:50.130Z,7.60
2019-03-31T01:52:57.094Z,7.50
2019-03-31T01:54:03.940Z,7.50
2019-03-31T01:55:11.604Z,7.40
2019-03-31T01:56:18.696Z,7.40
2019-03-31T01:57:25.846Z,7.40
2019-03-31T01:58:32.673Z,7.40
2019-03-31T01:59:39.687Z,7.50
2019-03-31T02:00:50.522Z,7.50
2019-03-31T02:02:03.998Z,7.40
2019-03-31T02:03:06.401Z,7.40
2019-03-31T02:04:13.401Z,7.50
2019-03-31T02:05:20.343Z,7.50
2019-03-31T02:06:27.170Z,7.40
2019-03-31T02:07:34.193Z,7.40
2019-03-31T02:08:41.139Z,7.40
2019-03-31T02:09:48.040Z,7.40
2019-03-31T02:10:54.755Z,7.40
2019-03-31T02:12:01.801Z,7.40
2019-03-31T02:13:08.891Z,7.40
2019-03-31T02:14:15.750Z,7.30
2019-03-31T02:15:22.756Z,7.30
2019-03-31T02:16:29.970Z,7.30
2019-03-31T02:17:36.903Z,7.30
2019-03-31T02:18:44.014Z,7.30
2019-03-31T02:19:50.944Z,7.30
2019-03-31T02:20:57.786Z,7.30
2019-03-31T02:22:04.804Z,7.40
2019-03-31T02:23:11.710Z,7.40
2019-03-31T02:24:18.649Z,7.20
2019-03-31T02:25:25.505Z,7.30
2019-03-31T02:26:32.462Z,7.40
2019-03-31T02:27:39.750Z,7.30
2019-03-31T02:28:47.913Z,7.40
2019-03-31T02:29:55.040Z,7.50
2019-03-31T02:31:02.131Z,7.30
2019-03-31T02:32:23.209Z,7.40
2019-03-31T02:33:17.764Z,7.30
2019-03-31T02:34:24.641Z,7.30
2019-03-31T02:35:31.440Z,7.20
2019-03-31T02:36:39.393Z,7.20
2019-03-31T02:37:46.309Z,7.00
2019-03-31T02:38:53.200Z,6.90
2019-03-31T02:40:00.412Z,7.10
2019-03-31T02:41:07.631Z,7.20
2019-03-31T02:42:14.800Z,7.40
2019-03-31T02:43:22.199Z,7.20
2019-03-31T02:44:29.241Z,7.30
2019-03-31T02:45:36.926Z,7.40
2019-03-31T02:46:45.151Z,7.50
2019-03-31T02:47:52.254Z,7.40
2019-03-31T02:48:59.369Z,7.50
2019-03-31T02:50:06.587Z,7.50
2019-03-31T02:51:13.525Z,7.40
2019-03-31T02:52:20.425Z,7.40
2019-03-31T02:53:27.582Z,7.30
2019-03-31T02:54:34.729Z,7.30
2019-03-31T02:55:41.822Z,7.30
2019-03-31T02:56:49.353Z,7.40
2019-03-31T02:57:56.417Z,7.40
2019-03-31T02:59:04.216Z,7.40
2019-03-31T03:00:11.285Z,7.30
2019-03-31T03:01:19.982Z,7.40
2019-03-31T03:02:41.691Z,7.20
2019-03-31T03:03:39.874Z,7.20
2019-03-31T03:04:49.881Z,7.30
2019-03-31T03:06:00.034Z,7.30
2019-03-31T03:07:08.542Z,7.30
2019-03-31T03:08:16.586Z,7.40
2019-03-31T03:09:26.206Z,7.30
2019-03-31T03:10:35.522Z,7.30
2019-03-31T03:11:44.561Z,7.20
2019-03-31T03:12:52.869Z,7.20
2019-03-31T03:14:03.280Z,7.20
2019-03-31T03:15:11.561Z,7.10
2019-03-31T03:16:22.031Z,7.10
2019-03-31T03:17:29.006Z,7.20
2019-03-31T03:18:36.191Z,7.20
2019-03-31T03:19:43.083Z,7.10
2019-03-31T03:20:50.119Z,7.10
2019-03-31T03:21:57.034Z,7.10
2019-03-31T03:23:03.912Z,7.10
2019-03-31T03:24:10.925Z,7.10
2019-03-31T03:25:17.753Z,7.00
2019-03-31T03:26:26.233Z,7.10
2019-03-31T03:27:33.125Z,7.10
2019-03-31T03:28:40.278Z,7.10
2019-03-31T03:29:47.246Z,7.00
2019-03-31T03:30:54.468Z,6.90
2019-03-31T03:32:01.957Z,7.00
2019-03-31T03:33:15.713Z,7.00
2019-03-31T03:34:17.103Z,7.10
2019-03-31T03:35:23.949Z,7.10
2019-03-31T03:36:31.161Z,7.20
2019-03-31T03:37:38.165Z,7.10
2019-03-31T03:38:45.190Z,7.20
2019-03-31T03:39:52.173Z,7.20
2019-03-31T03:41:00.294Z,7.20
2019-03-31T03:42:07.266Z,7.10
2019-03-31T03:43:14.225Z,7.20
2019-03-31T03:44:21.247Z,7.20
2019-03-31T03:45:28.023Z,7.00
2019-03-31T03:46:35.135Z,7.10
2019-03-31T03:47:42.017Z,7.00
2019-03-31T03:48:49.114Z,6.90
2019-03-31T03:49:56.223Z,7.00
2019-03-31T03:51:03.066Z,6.90
2019-03-31T03:52:10.241Z,6.90
2019-03-31T03:53:17.207Z,6.90
2019-03-31T03:54:24.343Z,6.90
2019-03-31T03:55:31.460Z,6.90
2019-03-31T03:56:38.390Z,7.00
2019-03-31T03:57:45.164Z,7.00
2019-03-31T03:58:52.060Z,7.00
2019-03-31T03:59:58.980Z,7.10
2019-03-31T04:01:17.970Z,7.10
2019-03-31T04:02:24.935Z,7.10
2019-03-31T04:03:31.753Z,7.10
2019-03-31T04:04:38.703Z,7.10
2019-03-31T04:05:45.534Z,7.00
2019-03-31T04:06:52.360Z,7.00
2019-03-31T04:07:59.287Z,6.90
2019-03-31T04:09:07.942Z,6.90
2019-03-31T04:10:58.169Z,7.00
2019-03-31T04:12:05.927Z,6.90
2019-03-31T04:13:13.161Z,6.90
2019-03-31T04:14:19.950Z,6.90
2019-03-31T04:15:26.904Z,6.90
2019-03-31T04:16:33.902Z,7.00
2019-03-31T04:17:40.896Z,7.00
2019-03-31T04:18:47.745Z,7.00
2019-03-31T04:19:55.198Z,7.00
2019-03-31T04:21:02.102Z,7.00
2019-03-31T04:22:09.078Z,6.80
2019-03-31T04:23:15.929Z,6.90
2019-03-31T04:24:22.883Z,7.00
2019-03-31T04:25:29.817Z,6.90
2019-03-31T04:26:36.806Z,7.00
2019-03-31T04:27:43.805Z,6.90
2019-03-31T04:28:50.642Z,7.00
2019-03-31T04:29:57.680Z,7.00
2019-03-31T04:31:05.116Z,7.00
2019-03-31T04:32:12.064Z,7.00
2019-03-31T04:33:18.912Z,7.00
2019-03-31T04:34:26.488Z,7.00
2019-03-31T04:35:34.295Z,7.10
2019-03-31T04:36:41.239Z,7.20
2019-03-31T04:37:48.079Z,7.00
2019-03-31T04:38:59.586Z,6.90
2019-03-31T04:40:03.482Z,6.90
2019-03-31T04:41:10.560Z,7.10
2019-03-31T04:42:17.389Z,7.10
2019-03-31T04:43:24.516Z,7.10
2019-03-31T04:44:31.477Z,7.00
2019-03-31T04:45:38.461Z,7.00
2019-03-31T04:46:45.452Z,7.10
2019-03-31T04:47:52.519Z,7.20
2019-03-31T04:48:59.773Z,7.30
2019-03-31T04:50:08.063Z,7.10
2019-03-31T04:51:15.150Z,7.00
2019-03-31T04:52:22.043Z,7.10
2019-03-31T04:53:28.943Z,7.20
2019-03-31T04:54:35.670Z,7.20
2019-03-31T04:55:42.666Z,7.20
2019-03-31T04:56:49.782Z,7.40
2019-03-31T04:57:56.835Z,7.40
2019-03-31T04:59:03.790Z,7.50
2019-03-31T05:00:11.199Z,7.50
2019-03-31T05:01:18.084Z,7.60
2019-03-31T05:02:27.130Z,7.40
2019-03-31T05:03:33.609Z,7.40
2019-03-31T05:04:40.496Z,7.40
2019-03-31T05:05:47.389Z,7.40
2019-03-31T05:06:54.313Z,7.40
2019-03-31T05:08:00.995Z,7.30
2019-03-31T05:09:08.375Z,7.30
2019-03-31T05:10:15.279Z,7.40
2019-03-31T05:11:22.441Z,7.30
2019-03-31T05:12:29.301Z,7.40
2019-03-31T05:13:36.461Z,7.30
2019-03-31T05:14:43.362Z,7.40
2019-03-31T05:15:50.324Z,7.20
2019-03-31T05:16:57.204Z,7.30
2019-03-31T05:18:04.125Z,7.30
2019-03-31T05:19:11.005Z,7.30
2019-03-31T05:20:17.864Z,7.40
2019-03-31T05:21:24.715Z,7.40
2019-03-31T05:22:31.596Z,7.40
2019-03-31T05:23:38.692Z,7.40
2019-03-31T05:24:46.769Z,7.40
2019-03-31T05:25:54.777Z,7.40
2019-03-31T05:27:02.899Z,7.50
2019-03-31T05:28:09.615Z,7.60
2019-03-31T05:29:16.471Z,7.70
2019-03-31T05:30:23.312Z,7.60
2019-03-31T05:31:30.331Z,7.60
2019-03-31T05:32:37.187Z,7.60
2019-03-31T05:33:44.988Z,7.70
2019-03-31T05:34:51.893Z,7.80
2019-03-31T05:35:58.918Z,7.80
2019-03-31T05:37:05.816Z,7.80
2019-03-31T05:38:12.730Z,7.90
2019-03-31T05:39:19.636Z,8.00
2019-03-31T05:40:30.571Z,8.10
2019-03-31T05:41:36.021Z,8.10
2019-03-31T05:42:42.884Z,8.10
2019-03-31T05:43:49.730Z,8.10
2019-03-31T05:44:56.741Z,8.10
2019-03-31T05:46:04.636Z,8.10
2019-03-31T05:47:11.679Z,8.20
2019-03-31T05:48:18.595Z,8.20
2019-03-31T05:49:25.861Z,8.30
2019-03-31T05:50:32.651Z,8.30
2019-03-31T05:51:39.863Z,8.30
2019-03-31T05:52:46.767Z,8.30
2019-03-31T05:53:53.704Z,8.30
2019-03-31T05:55:01.581Z,8.40
2019-03-31T05:56:08.532Z,8.50
2019-03-31T05:57:15.383Z,8.50
2019-03-31T05:58:22.452Z,8.50
2019-03-31T05:59:29.441Z,8.60
2019-03-31T06:00:45.760Z,8.60
2019-03-31T06:01:52.745Z,8.60
2019-03-31T06:02:59.645Z,8.60
2019-03-31T06:04:06.634Z,8.70
2019-03-31T06:05:13.521Z,8.80
2019-03-31T06:06:20.538Z,8.70
2019-03-31T06:07:27.523Z,8.80
2019-03-31T06:08:34.590Z,8.80
2019-03-31T06:09:41.500Z,8.80
2019-03-31T06:10:48.514Z,8.90
2019-03-31T06:11:55.708Z,8.90
2019-03-31T06:13:02.593Z,9.00
2019-03-31T06:14:09.618Z,9.00
2019-03-31T06:15:16.643Z,9.00
2019-03-31T06:16:23.778Z,9.10
2019-03-31T06:17:30.870Z,9.20
2019-03-31T06:18:37.801Z,9.20
2019-03-31T06:19:44.684Z,9.30
2019-03-31T06:20:51.656Z,9.30
2019-03-31T06:21:58.457Z,9.30
2019-03-31T06:23:05.402Z,9.40
2019-03-31T06:24:12.240Z,9.50
2019-03-31T06:25:19.317Z,9.50
2019-03-31T06:26:26.261Z,9.60
2019-03-31T06:27:33.312Z,9.60
2019-03-31T06:28:40.366Z,9.60
2019-03-31T06:29:47.717Z,9.60
2019-03-31T06:30:54.656Z,9.70
2019-03-31T06:32:01.912Z,9.80
2019-03-31T06:33:08.790Z,9.80
2019-03-31T06:34:16.546Z,9.90
2019-03-31T06:35:24.020Z,9.90
2019-03-31T06:36:31.080Z,10.00
2019-03-31T06:37:38.011Z,10.00
2019-03-31T06:38:45.017Z,10.10
2019-03-31T06:39:51.833Z,10.10
2019-03-31T06:40:59.176Z,10.10
2019-03-31T06:42:06.344Z,10.20
2019-03-31T06:43:13.202Z,10.20
2019-03-31T06:44:20.233Z,10.30
2019-03-31T06:45:27.171Z,10.30
2019-03-31T06:46:34.051Z,10.30
2019-03-31T06:47:41.074Z,10.40
2019-03-31T06:48:48.023Z,10.40
2019-03-31T06:49:55.357Z,10.50
2019-03-31T06:51:02.337Z,10.50
2019-03-31T06:52:09.395Z,10.60
2019-03-31T06:53:16.376Z,10.60
2019-03-31T06:54:23.366Z,10.60
2019-03-31T06:55:30.316Z,10.70
2019-03-31T06:56:37.480Z,10.80
2019-03-31T06:57:44.459Z,10.80
2019-03-31T06:58:51.372Z,10.80
2019-03-31T06:59:58.463Z,10.80
2019-03-31T07:01:05.354Z,10.90
2019-03-31T07:02:12.225Z,10.90
2019-03-31T07:03:19.147Z,11.00
2019-03-31T07:04:26.155Z,11.00
2019-03-31T07:05:33.333Z,11.00
2019-03-31T07:06:40.289Z,11.10
2019-03-31T07:07:47.220Z,11.10
2019-03-31T07:08:54.132Z,11.10
2019-03-31T07:10:00.877Z,11.20
2019-03-31T07:11:07.892Z,11.20
2019-03-31T07:12:14.803Z,11.20
2019-03-31T07:13:21.800Z,11.30
2019-03-31T07:14:28.699Z,11.30
2019-03-31T07:15:35.963Z,11.40
2019-03-31T07:16:43.280Z,11.40
2019-03-31T07:17:50.907Z,11.50
2019-03-31T07:18:58.010Z,11.50
2019-03-31T07:20:05.280Z,11.60
2019-03-31T07:21:12.386Z,11.60
2019-03-31T07:22:19.288Z,11.60
2019-03-31T07:23:26.283Z,11.70
2019-03-31T07:24:33.146Z,11.80
2019-03-31T07:25:40.322Z,11.80
2019-03-31T07:26:47.505Z,11.90
2019-03-31T07:27:54.717Z,11.90
2019-03-31T07:29:01.962Z,11.90
2019-03-31T07:30:10.033Z,11.90
2019-03-31T07:31:17.050Z,12.00
2019-03-31T07:32:23.894Z,12.00
2019-03-31T07:33:31.177Z,12.00
2019-03-31T07:34:39.742Z,12.10
2019-03-31T07:35:46.846Z,12.20
2019-03-31T07:36:53.848Z,12.20
2019-03-31T07:38:00.752Z,12.20
2019-03-31T07:39:08.732Z,12.30
2019-03-31T07:40:16.312Z,12.30
2019-03-31T07:41:24.236Z,12.40
2019-03-31T07:42:31.317Z,12.40
2019-03-31T07:43:38.295Z,12.50
2019-03-31T07:44:45.159Z,12.50
2019-03-31T07:45:55.633Z,12.60
2019-03-31T07:47:00.753Z,12.70
2019-03-31T07:48:08.216Z,12.70
2019-03-31T07:49:15.483Z,12.80
2019-03-31T07:50:22.681Z,12.80
2019-03-31T07:51:30.059Z,12.90
2019-03-31T07:52:37.366Z,12.90
2019-03-31T07:53:44.332Z,12.90
2019-03-31T07:54:51.413Z,13.00
2019-03-31T07:55:58.418Z,13.00
2019-03-31T07:57:07.077Z,13.10
2019-03-31T07:58:14.223Z,13.10
2019-03-31T07:59:20.989Z,13.10
2019-03-31T08:00:28.450Z,13.20
2019-03-31T08:01:35.291Z,13.30
2019-03-31T08:02:42.140Z,13.70
2019-03-31T08:03:49.145Z,14.30
2019-03-31T08:04:56.131Z,15.00
2019-03-31T08:06:03.044Z,15.70
2019-03-31T08:07:09.910Z,16.20
2019-03-31T08:08:16.863Z,16.60
2019-03-31T08:09:23.811Z,17.10
2019-03-31T08:10:30.667Z,17.60
2019-03-31T08:11:37.878Z,17.90
2019-03-31T08:12:44.903Z,18.20
2019-03-31T08:13:55.095Z,18.30
2019-03-31T08:15:00.524Z,18.30
2019-03-31T08:16:07.776Z,18.70
2019-03-31T08:17:14.977Z,18.90
2019-03-31T08:18:21.950Z,19.10
2019-03-31T08:19:28.772Z,19.40
2019-03-31T08:20:35.702Z,19.50
2019-03-31T08:21:42.880Z,19.40
2019-03-31T08:22:49.984Z,19.80
2019-03-31T08:23:56.874Z,20.70
2019-03-31T08:25:03.916Z,21.10
2019-03-31T08:26:11.354Z,21.20
2019-03-31T08:27:18.444Z,21.10
2019-03-31T08:28:26.323Z,21.20
2019-03-31T08:29:33.352Z,21.30
2019-03-31T08:30:40.188Z,21.60
2019-03-31T08:31:47.282Z,22.00
2019-03-31T08:32:54.332Z,22.10
2019-03-31T08:34:01.282Z,22.40
2019-03-31T08:35:09.167Z,22.00
2019-03-31T08:36:16.460Z,21.60
2019-03-31T08:37:23.352Z,20.10
2019-03-31T08:38:30.192Z,20.10
2019-03-31T08:39:37.072Z,20.80
2019-03-31T08:40:44.000Z,20.30
2019-03-31T08:41:50.871Z,20.10
2019-03-31T08:42:57.850Z,20.60
2019-03-31T08:44:04.922Z,20.30
2019-03-31T08:45:12.068Z,19.00
2019-03-31T08:46:19.023Z,17.90
2019-03-31T08:47:25.822Z,17.80
2019-03-31T08:48:32.586Z,18.00
2019-03-31T08:49:39.765Z,19.00
2019-03-31T08:50:46.948Z,19.00
2019-03-31T08:51:53.884Z,18.90
2019-03-31T08:53:00.854Z,18.50
2019-03-31T08:54:07.667Z,20.10
2019-03-31T08:55:14.717Z,20.60
2019-03-31T08:56:21.744Z,20.50
2019-03-31T08:57:28.824Z,20.60
2019-03-31T08:58:35.791Z,20.60
2019-03-31T08:59:43.009Z,21.10
2019-03-31T09:00:56.845Z,20.50
2019-03-31T09:02:22.959Z,19.70
2019-03-31T09:03:30.130Z,19.00
2019-03-31T09:04:37.388Z,18.00
2019-03-31T09:05:44.703Z,18.50
2019-03-31T09:06:51.543Z,19.00
2019-03-31T09:07:58.529Z,18.50
2019-03-31T09:09:07.993Z,18.20
2019-03-31T09:10:15.742Z,17.90
2019-03-31T09:11:22.674Z,17.80
2019-03-31T09:12:29.744Z,17.80
2019-03-31T09:13:36.585Z,17.50
2019-03-31T09:14:43.834Z,17.80
2019-03-31T09:15:50.714Z,18.90
2019-03-31T09:16:57.774Z,19.60
2019-03-31T09:18:04.817Z,19.90
2019-03-31T09:19:11.803Z,19.30
2019-03-31T09:20:18.985Z,18.60
2019-03-31T09:21:25.901Z,18.10
2019-03-31T09:22:32.893Z,17.70
2019-03-31T09:23:39.744Z,17.20
2019-03-31T09:24:46.868Z,17.00
2019-03-31T09:25:53.917Z,16.90
2019-03-31T09:27:01.922Z,16.70
2019-03-31T09:28:08.932Z,16.30
2019-03-31T09:29:16.078Z,16.60
2019-03-31T09:30:23.000Z,16.70
2019-03-31T09:31:30.056Z,16.70
2019-03-31T09:32:37.318Z,16.60
2019-03-31T09:33:44.234Z,16.70
2019-03-31T09:34:51.250Z,16.90
2019-03-31T09:35:58.166Z,17.10
2019-03-31T09:37:05.214Z,17.10
2019-03-31T09:38:12.231Z,17.20
2019-03-31T09:39:19.104Z,17.20
2019-03-31T09:40:26.078Z,17.10
2019-03-31T09:41:33.022Z,16.90
2019-03-31T09:42:40.054Z,16.70
2019-03-31T09:43:46.944Z,16.60
2019-03-31T09:44:53.973Z,16.50
2019-03-31T09:46:00.940Z,16.20
2019-03-31T09:47:12.655Z,16.10
2019-03-31T09:48:19.552Z,16.00
2019-03-31T09:49:26.506Z,16.00
2019-03-31T09:50:33.354Z,16.00
2019-03-31T09:51:40.352Z,16.00
2019-03-31T09:52:47.254Z,16.00
2019-03-31T09:53:54.294Z,15.90
2019-03-31T09:55:01.422Z,16.10
2019-03-31T09:56:08.473Z,16.30
2019-03-31T09:57:15.641Z,16.60
2019-03-31T09:58:23.751Z,16.70
2019-03-31T09:59:30.792Z,16.70
2019-03-31T10:00:51.112Z,16.50
2019-03-31T10:01:58.062Z,16.70
2019-03-31T10:03:04.957Z,16.90
2019-03-31T10:04:11.864Z,17.00
2019-03-31T10:05:19.107Z,16.90
2019-03-31T10:06:30.619Z,16.90
2019-03-31T10:07:34.712Z,17.10
2019-03-31T10:08:41.936Z,17.10
2019-03-31T10:09:49.015Z,17.10
2019-03-31T10:10:56.220Z,17.10
2019-03-31T10:12:03.632Z,17.20
2019-03-31T10:13:10.684Z,17.40
2019-03-31T10:14:17.705Z,17.50
2019-03-31T10:15:24.884Z,17.40
2019-03-31T10:16:31.757Z,17.30
2019-03-31T10:17:38.932Z,17.20
2019-03-31T10:18:45.923Z,17.00
2019-03-31T10:19:52.854Z,17.10
2019-03-31T10:20:59.906Z,17.10
2019-03-31T10:22:06.750Z,17.10
2019-03-31T10:23:13.885Z,17.20
2019-03-31T10:24:20.851Z,17.20
2019-03-31T10:25:27.798Z,17.10
2019-03-31T10:26:34.760Z,17.10
2019-03-31T10:27:41.662Z,16.90
2019-03-31T10:28:49.027Z,17.20
2019-03-31T10:29:56.102Z,17.20
2019-03-31T10:31:02.977Z,17.30
2019-03-31T10:32:09.782Z,17.40
2019-03-31T10:33:17.415Z,17.50
2019-03-31T10:34:24.630Z,17.50
2019-03-31T10:35:31.695Z,17.50
2019-03-31T10:36:44.599Z,18.20
2019-03-31T10:37:47.405Z,18.50
2019-03-31T10:38:54.585Z,19.70
2019-03-31T10:40:01.809Z,21.60
2019-03-31T10:41:09.332Z,22.30
2019-03-31T10:42:16.277Z,22.60
2019-03-31T10:43:23.265Z,22.70
2019-03-31T10:44:30.234Z,23.70
2019-03-31T10:45:37.585Z,24.50
2019-03-31T10:46:44.863Z,24.40
2019-03-31T10:47:51.927Z,24.20
2019-03-31T10:48:59.727Z,24.60
2019-03-31T10:50:08.326Z,25.40
2019-03-31T10:51:16.280Z,25.10
2019-03-31T10:52:24.270Z,23.40
2019-03-31T10:53:31.288Z,24.10
2019-03-31T10:54:38.374Z,25.40
2019-03-31T10:55:45.455Z,24.90
2019-03-31T10:56:52.603Z,25.80
2019-03-31T10:57:59.680Z,26.60
2019-03-31T10:59:07.058Z,26.10
2019-03-31T11:00:14.605Z,25.40
2019-03-31T11:01:24.303Z,25.90
2019-03-31T11:02:31.546Z,26.20
2019-03-31T11:03:38.655Z,26.70
2019-03-31T11:04:45.603Z,26.60
2019-03-31T11:05:53.611Z,25.90
2019-03-31T11:07:03.505Z,24.00
2019-03-31T11:08:09.285Z,23.90
2019-03-31T11:09:17.383Z,23.90
2019-03-31T11:10:24.238Z,25.00
2019-03-31T11:11:31.132Z,24.50
2019-03-31T11:12:38.373Z,24.70
2019-03-31T11:13:46.288Z,23.90
2019-03-31T11:14:53.341Z,23.70
2019-03-31T11:16:00.672Z,24.20
2019-03-31T11:17:07.579Z,23.90
2019-03-31T11:18:14.686Z,24.40
2019-03-31T11:19:21.890Z,25.60
2019-03-31T11:20:28.763Z,24.80
2019-03-31T11:21:40.992Z,23.80
2019-03-31T11:22:55.673Z,23.60
2019-03-31T11:24:02.568Z,23.70
2019-03-31T11:25:20.583Z,24.60
2019-03-31T11:26:19.151Z,24.30
2019-03-31T11:27:26.121Z,23.90
2019-03-31T11:28:33.122Z,23.90
2019-03-31T11:29:40.448Z,24.70
2019-03-31T11:30:49.419Z,25.90
2019-03-31T11:31:56.937Z,27.00
2019-03-31T11:33:07.269Z,27.10
2019-03-31T11:34:12.694Z,27.00
2019-03-31T11:35:19.591Z,25.80
2019-03-31T11:36:26.794Z,24.50
2019-03-31T11:37:33.664Z,23.70
2019-03-31T11:38:40.594Z,22.90
2019-03-31T11:39:47.871Z,22.40
2019-03-31T11:40:54.931Z,22.10
2019-03-31T11:42:01.986Z,22.20
2019-03-31T11:43:11.336Z,21.80
2019-03-31T11:44:18.324Z,21.30
2019-03-31T11:45:25.485Z,20.70
2019-03-31T11:46:33.365Z,20.20
2019-03-31T11:47:40.503Z,19.80
2019-03-31T11:48:47.396Z,19.80
2019-03-31T11:49:55.820Z,19.40
2019-03-31T11:51:02.878Z,19.40
2019-03-31T11:52:09.818Z,19.60
2019-03-31T11:53:17.240Z,19.80
2019-03-31T11:54:24.543Z,19.90
2019-03-31T11:55:31.654Z,19.70
2019-03-31T11:56:38.769Z,19.30
2019-03-31T11:57:45.919Z,19.30
2019-03-31T11:58:53.125Z,20.60
2019-03-31T12:00:00.274Z,21.30
2019-03-31T12:01:07.511Z,21.40
2019-03-31T12:02:26.343Z,21.30
2019-03-31T12:03:23.671Z,20.80
2019-03-31T12:04:30.670Z,20.50
2019-03-31T12:05:38.013Z,21.00
2019-03-31T12:06:45.526Z,21.60
2019-03-31T12:07:52.800Z,22.00
2019-03-31T12:09:00.293Z,22.50
2019-03-31T12:10:07.725Z,22.80
2019-03-31T12:11:14.840Z,22.60
2019-03-31T12:12:21.820Z,23.40
2019-03-31T12:13:28.770Z,22.70
2019-03-31T12:14:35.735Z,22.60
2019-03-31T12:15:42.859Z,22.10
2019-03-31T12:16:50.127Z,21.70
2019-03-31T12:17:57.162Z,21.10
2019-03-31T12:19:04.278Z,21.20
2019-03-31T12:20:12.344Z,21.00
2019-03-31T12:21:19.492Z,21.50
2019-03-31T12:22:26.538Z,21.80
2019-03-31T12:23:33.502Z,21.80
2019-03-31T12:24:40.575Z,21.40
2019-03-31T12:25:47.703Z,20.30
2019-03-31T12:26:54.706Z,19.90
2019-03-31T12:28:03.050Z,19.30
2019-03-31T12:29:10.003Z,19.20
2019-03-31T12:30:19.783Z,19.80
2019-03-31T12:31:26.835Z,20.60
2019-03-31T12:32:34.114Z,20.40
2019-03-31T12:33:41.272Z,21.80
2019-03-31T12:34:48.541Z,23.20
2019-03-31T12:35:55.822Z,23.80
2019-03-31T12:37:03.011Z,23.60
2019-03-31T12:38:10.251Z,23.60
2019-03-31T12:39:17.510Z,23.20
2019-03-31T12:40:32.605Z,23.80
2019-03-31T12:41:39.723Z,23.60
2019-03-31T12:42:46.711Z,23.20
2019-03-31T12:43:53.983Z,23.20
2019-03-31T12:45:01.123Z,22.70
2019-03-31T12:46:08.227Z,21.20
2019-03-31T12:47:15.390Z,20.60
2019-03-31T12:48:22.471Z,21.00
2019-03-31T12:49:29.740Z,22.00
2019-03-31T12:50:36.979Z,22.30
2019-03-31T12:51:44.143Z,22.70
2019-03-31T12:52:51.376Z,22.90
2019-03-31T12:53:58.437Z,23.10
2019-03-31T12:55:05.671Z,22.90
2019-03-31T12:56:12.818Z,22.80
2019-03-31T12:57:20.436Z,23.40
2019-03-31T12:58:28.021Z,24.20
2019-03-31T12:59:35.008Z,24.50
2019-03-31T13:00:42.151Z,23.30
2019-03-31T13:01:49.621Z,21.90
2019-03-31T13:02:56.867Z,21.20
2019-03-31T13:04:04.415Z,20.70
2019-03-31T13:05:11.674Z,20.30
2019-03-31T13:06:19.093Z,19.90
2019-03-31T13:07:26.371Z,19.50
2019-03-31T13:08:33.482Z,19.30
2019-03-31T13:09:40.985Z,19.10
2019-03-31T13:10:48.415Z,19.00
2019-03-31T13:11:55.684Z,19.00
2019-03-31T13:13:03.237Z,18.70
2019-03-31T13:14:10.840Z,18.80
2019-03-31T13:15:18.151Z,18.70
2019-03-31T13:16:25.541Z,18.80
2019-03-31T13:17:33.099Z,18.70
2019-03-31T13:18:40.484Z,18.50
2019-03-31T13:19:47.925Z,18.20
2019-03-31T13:20:55.615Z,18.10
2019-03-31T13:22:03.030Z,18.00
2019-03-31T13:23:10.626Z,17.90
2019-03-31T13:24:17.715Z,17.90
2019-03-31T13:25:24.955Z,17.60
2019-03-31T13:26:32.087Z,17.60
2019-03-31T13:27:39.213Z,17.60
2019-03-31T13:28:46.568Z,17.50
2019-03-31T13:29:53.749Z,17.60
2019-03-31T13:31:00.825Z,17.30
2019-03-31T13:32:08.024Z,17.20
2019-03-31T13:33:16.682Z,17.20
2019-03-31T13:34:24.060Z,17.00
2019-03-31T13:35:32.225Z,17.10
2019-03-31T13:36:39.350Z,17.10
2019-03-31T13:37:46.418Z,17.00
2019-03-31T13:38:53.596Z,16.80
2019-03-31T13:40:01.173Z,17.00
2019-03-31T13:41:08.957Z,17.00
2019-03-31T13:42:16.231Z,17.20
2019-03-31T13:43:23.427Z,17.50
2019-03-31T13:44:30.653Z,17.70
2019-03-31T13:45:38.167Z,17.80
2019-03-31T13:46:45.254Z,17.90
2019-03-31T13:47:52.591Z,18.30
2019-03-31T13:48:59.731Z,18.30
2019-03-31T13:50:07.295Z,18.50
2019-03-31T13:51:14.745Z,18.50
2019-03-31T13:52:21.914Z,18.50
2019-03-31T13:53:28.715Z,18.60
2019-03-31T13:54:35.977Z,18.70
2019-03-31T13:55:43.354Z,19.00
2019-03-31T13:56:50.810Z,19.40
2019-03-31T13:57:58.365Z,20.00
2019-03-31T13:59:08.971Z,20.50
2019-03-31T14:00:25.435Z,21.10
2019-03-31T14:01:25.982Z,21.40
2019-03-31T14:02:33.123Z,21.30
2019-03-31T14:03:40.538Z,20.90
2019-03-31T14:04:51.803Z,21.30
2019-03-31T14:05:56.785Z,21.50
2019-03-31T14:07:04.672Z,21.30
2019-03-31T14:08:25.055Z,21.40
2019-03-31T14:09:20.844Z,21.30
2019-03-31T14:10:27.885Z,20.50
2019-03-31T14:11:35.294Z,19.60
2019-03-31T14:12:42.617Z,19.30
2019-03-31T14:13:50.954Z,18.90
2019-03-31T14:14:58.223Z,18.50
2019-03-31T14:16:05.401Z,18.40
2019-03-31T14:17:12.981Z,18.50
2019-03-31T14:18:20.275Z,18.50
2019-03-31T14:19:28.262Z,18.60
2019-03-31T14:20:35.934Z,18.50
2019-03-31T14:21:43.490Z,18.20
2019-03-31T14:22:51.076Z,18.00
2019-03-31T14:23:58.715Z,17.90
2019-03-31T14:25:06.425Z,17.80
2019-03-31T14:26:13.775Z,17.70
2019-03-31T14:27:21.228Z,17.50
2019-03-31T14:28:28.977Z,17.30
2019-03-31T14:29:36.242Z,17.30
2019-03-31T14:30:43.876Z,17.30
2019-03-31T14:31:52.121Z,17.30
2019-03-31T14:32:59.481Z,17.20
2019-03-31T14:34:07.031Z,17.10
2019-03-31T14:35:14.258Z,17.10
2019-03-31T14:36:21.762Z,16.90
2019-03-31T14:37:29.171Z,16.90
2019-03-31T14:38:40.406Z,17.00
2019-03-31T14:39:47.093Z,16.80
2019-03-31T14:40:54.657Z,16.50
2019-03-31T14:42:01.992Z,16.50